CMA CGM Turquoise — A8RB5 — position and weather

sailwx.info

Track history (hours):
 
Tides and Currents Weather Stations Pressure Air Temp Water Temp Dewpoint Dewpoint Depression Visibility Wind Speed Wind Dir Waves Ship Positions

CMA CGM Turquoise

Last reported at 2014-Dec-05 18:18 UTC. Time now 2014-Dec-20 13:00 UTC.
Position S 24°09' W 046°22'.
Warning: this ship's position is 14 days out of date.

Length 258 m; draft 8.5 m.

Type: Cargo ship. MMSI: 636014059.

Date/timePositionNaut miles runAvg speedWind from/ knotsBaromVisibWave heightAir tempDewpointWater temp
2014-Dec-05 18:18S 24°09' W 046°22'810.6
2014-Dec-05 17:33S 24°01' W 046°21'5 5.3
2014-Dec-05 16:34S 23°56' W 046°19'1 1.1
2014-Dec-05 15:30S 23°56' W 046°20'0 0.0
2014-Dec-05 14:32S 23°56' W 046°20'0 0.0
2014-Dec-05 13:31S 23°56' W 046°20'0 0.0
2014-Dec-05 12:31S 23°56' W 046°20'0 0.0
2014-Dec-04 22:04S 23°56' W 046°20'0 0.0
2014-Dec-04 21:33S 23°56' W 046°20'0 0.0
2014-Dec-04 20:27S 23°56' W 046°20'0 0.0
2014-Dec-04 19:32S 23°56' W 046°20'0 0.0
2014-Dec-04 18:33S 23°56' W 046°20'0 0.0
2014-Dec-04 17:19S 23°56' W 046°20'0 0.0
2014-Dec-04 16:20S 23°56' W 046°20'0 0.0
2014-Dec-04 15:26S 23°56' W 046°20'3 3.1
2014-Dec-04 14:34S 23°58' W 046°18'6 6.2
2014-Dec-04 13:34S 24°03' W 046°21'228 6.9
2014-Dec-03 04:21S 27°29' W 048°10'1215.2
2014-Dec-03 03:33S 27°41' W 048°14'1515.1
2014-Dec-03 02:33S 27°55' W 048°20'  
2014-Nov-29 06:31S 34°45' W 057°36'1010.8
2014-Nov-29 05:33S 34°45' W 057°48'0 0.2
2014-Nov-29 04:32S 34°45' W 057°48'0 0.0
2014-Nov-29 03:31S 34°45' W 057°48'0 0.0
2014-Nov-29 02:33S 34°45' W 057°48'0 0.0
2014-Nov-29 01:31S 34°45' W 057°48'0 0.0
2014-Nov-29 00:28S 34°45' W 057°48'0 0.0
2014-Nov-28 23:32S 34°45' W 057°48'0 0.0
2014-Nov-28 22:32S 34°45' W 057°48'0 0.0
2014-Nov-28 21:33S 34°45' W 057°48'1 0.7
2014-Nov-28 20:33S 34°44' W 057°48'1616.1
2014-Nov-28 19:33S 34°38' W 058°06'1312.5
2014-Nov-28 18:33S 34°36' W 058°21'1 0.0
2014-Nov-27 16:27S 34°35' W 058°22'2 1.7
2014-Nov-27 15:33S 34°36' W 058°20'1212.2
2014-Nov-27 14:33S 34°39' W 058°06'12 3.9
2014-Nov-27 11:33S 34°43' W 057°53'0 0.0
2014-Nov-27 10:33S 34°43' W 057°53'2 2.2
2014-Nov-27 09:33S 34°44' W 057°50'1010.4
2014-Nov-27 08:33S 34°45' W 057°38'1514.5
2014-Nov-27 07:32S 34°52' W 057°21'1414.5
2014-Nov-27 06:32S 35°02' W 057°10'1414.0
2014-Nov-27 05:33S 35°10' W 056°56'1211.7
2014-Nov-27 04:33S 35°10' W 056°41'1311.8
2014-Nov-27 03:25S 35°10' W 056°25'1010.6
2014-Nov-27 02:31S 35°10' W 056°13'1111.2
2014-Nov-27 01:33S 35°05' W 056°01'  
Track history (hours):
 
Tides and Currents Weather Stations Pressure Air Temp Water Temp Dewpoint Dewpoint Depression Visibility Wind Speed Wind Dir Waves Ship Positions

CMA CGM Turquoise

Last reported at 2014-Dec-05 18:18 UTC. Time now 2014-Dec-20 13:00 UTC.
Position S 24°09' W 046°22'.
Warning: this ship's position is 14 days out of date.

Length 258 m; draft 8.5 m.

Type: Cargo ship. MMSI: 636014059.

Date/timePositionNaut miles runAvg speedWind from/ knotsBaromVisibWave heightAir tempDewpointWater temp
2014-Dec-05 18:18S 24°09' W 046°22'810.6
2014-Dec-05 17:33S 24°01' W 046°21'5 5.3
2014-Dec-05 16:34S 23°56' W 046°19'1 1.1
2014-Dec-05 15:30S 23°56' W 046°20'0 0.0
2014-Dec-05 14:32S 23°56' W 046°20'0 0.0
2014-Dec-05 13:31S 23°56' W 046°20'0 0.0
2014-Dec-05 12:31S 23°56' W 046°20'0 0.0
2014-Dec-04 22:04S 23°56' W 046°20'0 0.0
2014-Dec-04 21:33S 23°56' W 046°20'0 0.0
2014-Dec-04 20:27S 23°56' W 046°20'0 0.0
2014-Dec-04 19:32S 23°56' W 046°20'0 0.0
2014-Dec-04 18:33S 23°56' W 046°20'0 0.0
2014-Dec-04 17:19S 23°56' W 046°20'0 0.0
2014-Dec-04 16:20S 23°56' W 046°20'0 0.0
2014-Dec-04 15:26S 23°56' W 046°20'3 3.1
2014-Dec-04 14:34S 23°58' W 046°18'6 6.2
2014-Dec-04 13:34S 24°03' W 046°21'228 6.9
2014-Dec-03 04:21S 27°29' W 048°10'1215.2
2014-Dec-03 03:33S 27°41' W 048°14'1515.1
2014-Dec-03 02:33S 27°55' W 048°20'  
2014-Nov-29 06:31S 34°45' W 057°36'1010.8
2014-Nov-29 05:33S 34°45' W 057°48'0 0.2
2014-Nov-29 04:32S 34°45' W 057°48'0 0.0
2014-Nov-29 03:31S 34°45' W 057°48'0 0.0
2014-Nov-29 02:33S 34°45' W 057°48'0 0.0
2014-Nov-29 01:31S 34°45' W 057°48'0 0.0
2014-Nov-29 00:28S 34°45' W 057°48'0 0.0
2014-Nov-28 23:32S 34°45' W 057°48'0 0.0
2014-Nov-28 22:32S 34°45' W 057°48'0 0.0
2014-Nov-28 21:33S 34°45' W 057°48'1 0.7
2014-Nov-28 20:33S 34°44' W 057°48'1616.1
2014-Nov-28 19:33S 34°38' W 058°06'1312.5
2014-Nov-28 18:33S 34°36' W 058°21'1 0.0
2014-Nov-27 16:27S 34°35' W 058°22'2 1.7
2014-Nov-27 15:33S 34°36' W 058°20'1212.2
2014-Nov-27 14:33S 34°39' W 058°06'12 3.9
2014-Nov-27 11:33S 34°43' W 057°53'0 0.0
2014-Nov-27 10:33S 34°43' W 057°53'2 2.2
2014-Nov-27 09:33S 34°44' W 057°50'1010.4
2014-Nov-27 08:33S 34°45' W 057°38'1514.5
2014-Nov-27 07:32S 34°52' W 057°21'1414.5
2014-Nov-27 06:32S 35°02' W 057°10'1414.0
2014-Nov-27 05:33S 35°10' W 056°56'1211.7
2014-Nov-27 04:33S 35°10' W 056°41'1311.8
2014-Nov-27 03:25S 35°10' W 056°25'1010.6
2014-Nov-27 02:31S 35°10' W 056°13'1111.2
2014-Nov-27 01:33S 35°05' W 056°01'  

Dump ship's entire track history